createdAt,value
2018-10-09T00:02:05.305Z,88.55
2018-10-09T00:04:34.411Z,88.50
2018-10-09T00:07:02.848Z,87.58
2018-10-09T00:09:31.351Z,87.72
2018-10-09T00:11:59.936Z,87.93
2018-10-09T00:14:28.371Z,89.07
2018-10-09T00:16:56.914Z,87.78
2018-10-09T00:19:25.349Z,88.20
2018-10-09T00:21:53.854Z,88.33
2018-10-09T00:24:23.079Z,88.42
2018-10-09T00:26:51.550Z,88.24
2018-10-09T00:29:20.387Z,88.43
2018-10-09T00:31:48.864Z,88.19
2018-10-09T00:34:17.477Z,87.66
2018-10-09T00:36:46.015Z,87.18
2018-10-09T00:39:14.497Z,87.70
2018-10-09T00:41:43.038Z,87.10
2018-10-09T00:44:11.622Z,87.13
2018-10-09T00:46:40.147Z,88.05
2018-10-09T00:49:08.608Z,88.17
2018-10-09T00:51:38.067Z,89.17
2018-10-09T00:54:06.532Z,89.10
2018-10-09T00:56:35.695Z,90.14
2018-10-09T00:59:04.295Z,90.56
2018-10-09T01:01:32.765Z,91.95
2018-10-09T01:04:01.258Z,92.74
2018-10-09T01:06:30.068Z,94.68
2018-10-09T01:08:58.727Z,94.33
2018-10-09T01:11:27.134Z,95.44
2018-10-09T01:13:55.593Z,95.18
2018-10-09T01:16:24.170Z,95.53
2018-10-09T01:18:53.267Z,95.58
2018-10-09T01:21:21.783Z,95.45
2018-10-09T01:23:50.272Z,95.30
2018-10-09T01:26:18.779Z,94.91
2018-10-09T01:28:47.299Z,94.85
2018-10-09T01:31:15.767Z,96.52
2018-10-09T01:33:44.253Z,96.42
2018-10-09T01:36:12.836Z,95.73
2018-10-09T01:38:41.332Z,95.60
2018-10-09T01:41:09.864Z,96.97
2018-10-09T01:43:38.456Z,96.88
2018-10-09T01:46:06.981Z,96.26
2018-10-09T01:48:35.468Z,96.57
2018-10-09T01:51:04.036Z,96.03
2018-10-09T01:53:32.500Z,94.18
2018-10-09T01:56:01.080Z,94.23
2018-10-09T01:58:29.622Z,91.91
2018-10-09T02:00:58.143Z,94.02
2018-10-09T02:03:26.586Z,94.51
2018-10-09T02:05:55.101Z,96.05
2018-10-09T02:08:23.605Z,96.64
2018-10-09T02:10:52.185Z,97.10
2018-10-09T02:13:20.657Z,97.28
2018-10-09T02:15:50.592Z,96.97
2018-10-09T02:18:19.144Z,95.25
2018-10-09T02:20:48.562Z,94.77
2018-10-09T02:23:17.132Z,93.68
2018-10-09T02:25:45.617Z,92.04
2018-10-09T02:28:14.096Z,91.58
2018-10-09T02:30:42.595Z,90.87
2018-10-09T02:33:11.324Z,90.55
2018-10-09T02:35:40.247Z,90.67
2018-10-09T02:38:08.739Z,91.92
2018-10-09T02:40:37.216Z,91.60
2018-10-09T02:43:08.729Z,91.22
2018-10-09T02:45:38.032Z,92.10
2018-10-09T02:48:06.699Z,90.18
2018-10-09T02:50:35.112Z,89.72
2018-10-09T02:53:03.602Z,88.63
2018-10-09T02:55:32.105Z,88.31
2018-10-09T02:58:01.976Z,89.41
2018-10-09T03:00:30.996Z,89.20
2018-10-09T03:02:59.489Z,88.54
2018-10-09T03:05:29.389Z,89.10
2018-10-09T03:07:57.908Z,90.54
2018-10-09T03:10:26.460Z,90.15
2018-10-09T03:12:55.156Z,91.17
2018-10-09T03:15:23.624Z,91.04
2018-10-09T03:17:52.184Z,90.12
2018-10-09T03:20:20.955Z,90.35
2018-10-09T03:22:49.423Z,91.59
2018-10-09T03:25:18.094Z,91.87
2018-10-09T03:27:47.476Z,91.84
2018-10-09T03:30:17.160Z,91.94
2018-10-09T03:32:45.684Z,92.22
2018-10-09T03:35:14.119Z,92.34
2018-10-09T03:37:42.630Z,92.80
2018-10-09T03:40:12.105Z,94.52
2018-10-09T03:42:40.586Z,94.60
2018-10-09T03:45:09.032Z,94.13
2018-10-09T03:47:37.583Z,94.49
2018-10-09T03:50:06.117Z,94.32
2018-10-09T03:52:34.625Z,93.63
2018-10-09T03:55:03.091Z,92.06
2018-10-09T03:57:31.679Z,93.76
2018-10-09T04:00:00.208Z,96.19
2018-10-09T04:02:28.633Z,96.42
2018-10-09T04:04:57.070Z,96.79
2018-10-09T04:07:25.516Z,96.78
2018-10-09T04:09:54.036Z,95.42
2018-10-09T04:12:22.504Z,96.29
2018-10-09T04:14:50.983Z,96.92
2018-10-09T04:17:19.458Z,96.78
2018-10-09T04:19:47.931Z,96.02
2018-10-09T04:22:22.726Z,95.58
2018-10-09T04:24:51.287Z,95.74
2018-10-09T04:27:20.322Z,95.51
2018-10-09T04:29:49.489Z,94.96
2018-10-09T04:32:17.902Z,94.35
2018-10-09T04:34:46.442Z,94.17
2018-10-09T04:37:14.883Z,93.97
2018-10-09T04:39:43.467Z,94.53
2018-10-09T04:42:11.955Z,93.86
2018-10-09T04:44:40.471Z,94.33
2018-10-09T04:47:08.891Z,93.41
2018-10-09T04:49:38.198Z,92.93
2018-10-09T04:52:07.148Z,93.07
2018-10-09T04:54:35.601Z,93.01
2018-10-09T04:57:04.069Z,91.57
2018-10-09T04:59:32.763Z,93.98
2018-10-09T05:02:02.012Z,93.35
2018-10-09T05:04:30.497Z,93.54
2018-10-09T05:06:58.911Z,93.32
2018-10-09T05:09:27.336Z,92.72
2018-10-09T05:11:56.765Z,92.16
2018-10-09T05:14:25.273Z,91.31
2018-10-09T05:16:53.728Z,91.53
2018-10-09T05:19:22.240Z,91.05
2018-10-09T05:21:50.703Z,91.30
2018-10-09T05:24:19.215Z,91.40
2018-10-09T05:26:47.650Z,91.57
2018-10-09T05:29:16.175Z,91.65
2018-10-09T05:31:45.539Z,90.68
2018-10-09T05:34:14.083Z,90.34
2018-10-09T05:36:42.580Z,90.07
2018-10-09T05:39:11.036Z,90.55
2018-10-09T05:41:39.771Z,89.98
2018-10-09T05:44:08.320Z,90.84
2018-10-09T05:46:37.331Z,90.62
2018-10-09T05:49:05.786Z,90.71
2018-10-09T05:51:34.400Z,90.72
2018-10-09T05:54:02.881Z,90.99
2018-10-09T05:56:31.355Z,90.37
2018-10-09T05:59:00.503Z,90.85
2018-10-09T06:01:29.135Z,92.31
2018-10-09T06:03:58.452Z,92.23
2018-10-09T06:06:26.942Z,94.54
2018-10-09T06:08:55.452Z,94.89
2018-10-09T06:11:25.634Z,95.49
2018-10-09T06:13:54.163Z,96.19
2018-10-09T06:16:22.577Z,96.03
2018-10-09T06:18:51.014Z,96.28
2018-10-09T06:21:21.349Z,96.39
2018-10-09T06:23:49.788Z,96.41
2018-10-09T06:26:18.325Z,96.76
2018-10-09T06:28:47.046Z,97.14
2018-10-09T06:31:16.141Z,96.80
2018-10-09T06:33:44.556Z,97.11
2018-10-09T06:36:13.051Z,97.78
2018-10-09T06:38:41.523Z,97.41
2018-10-09T06:41:10.091Z,96.84
2018-10-09T06:43:39.190Z,95.81
2018-10-09T06:46:07.662Z,96.25
2018-10-09T06:48:36.160Z,95.63
2018-10-09T06:51:05.619Z,96.69
2018-10-09T06:53:34.136Z,96.96
2018-10-09T06:56:02.564Z,98.16
2018-10-09T06:58:31.229Z,97.40
2018-10-09T07:01:01.057Z,98.37
2018-10-09T07:03:29.664Z,97.72
2018-10-09T07:05:58.437Z,98.39
2018-10-09T07:08:26.916Z,97.10
2018-10-09T07:10:56.078Z,96.98
2018-10-09T07:13:24.545Z,96.40
2018-10-09T07:15:53.032Z,96.70
2018-10-09T07:18:21.484Z,97.07
2018-10-09T07:20:49.944Z,96.94
2018-10-09T07:23:19.172Z,96.03
2018-10-09T07:25:47.610Z,96.23
2018-10-09T07:28:16.103Z,95.65
2018-10-09T07:30:44.774Z,94.95
2018-10-09T07:33:13.391Z,94.70
2018-10-09T07:35:41.971Z,93.92
2018-10-09T07:38:10.444Z,94.27
2018-10-09T07:40:38.975Z,93.40
2018-10-09T07:43:07.581Z,93.43
2018-10-09T07:45:36.119Z,94.23
2018-10-09T07:48:04.619Z,93.46
2018-10-09T07:50:34.140Z,93.27
2018-10-09T07:53:03.784Z,92.67
2018-10-09T07:55:32.553Z,89.38
2018-10-09T07:58:02.076Z,87.91
2018-10-09T08:00:31.507Z,84.98
2018-10-09T08:03:01.252Z,84.48
2018-10-09T08:05:29.963Z,84.73
2018-10-09T08:07:58.497Z,80.33
2018-10-09T08:10:27.109Z,80.07
2018-10-09T08:12:55.712Z,81.40
2018-10-09T08:15:24.327Z,79.41
2018-10-09T08:17:52.848Z,77.83
2018-10-09T08:20:22.401Z,72.83
2018-10-09T08:22:51.115Z,76.27
2018-10-09T08:25:19.607Z,74.55
2018-10-09T08:27:48.185Z,73.53
2018-10-09T08:30:16.680Z,74.63
2018-10-09T08:32:45.192Z,76.17
2018-10-09T08:35:13.672Z,76.12
2018-10-09T08:37:42.160Z,68.33
2018-10-09T08:40:11.621Z,65.68
2018-10-09T08:42:40.244Z,69.03
2018-10-09T08:45:08.794Z,67.02
2018-10-09T08:47:37.387Z,70.15
2018-10-09T08:50:05.888Z,64.92
2018-10-09T08:52:34.454Z,68.36
2018-10-09T08:55:02.871Z,67.25
2018-10-09T08:57:32.075Z,69.53
2018-10-09T09:00:00.513Z,72.38
2018-10-09T09:02:28.949Z,68.64
2018-10-09T09:04:58.241Z,68.95
2018-10-09T09:07:26.682Z,68.42
2018-10-09T09:09:55.190Z,71.43
2018-10-09T09:12:23.673Z,68.07
2018-10-09T09:14:52.139Z,66.87
2018-10-09T09:17:20.597Z,69.20
2018-10-09T09:19:49.090Z,67.20
2018-10-09T09:22:19.267Z,65.62
2018-10-09T09:24:47.726Z,66.31
2018-10-09T09:27:16.344Z,64.34
2018-10-09T09:29:55.833Z,65.83
2018-10-09T09:32:24.335Z,63.10
2018-10-09T09:34:52.856Z,61.78
2018-10-09T09:37:21.296Z,58.02
2018-10-09T09:39:49.868Z,54.06
2018-10-09T09:42:18.928Z,55.19
2018-10-09T09:44:47.364Z,59.28
2018-10-09T09:47:15.768Z,58.96
2018-10-09T09:49:44.590Z,58.98
2018-10-09T09:52:13.234Z,60.98
2018-10-09T09:54:41.620Z,63.04
2018-10-09T09:57:11.725Z,63.49
2018-10-09T09:59:41.260Z,65.53
2018-10-09T10:02:09.928Z,64.48
2018-10-09T10:04:39.194Z,60.89
2018-10-09T10:07:07.622Z,61.02
2018-10-09T10:09:36.121Z,60.63
2018-10-09T10:12:04.712Z,59.19
2018-10-09T10:14:34.346Z,59.92
2018-10-09T10:17:02.819Z,60.02
2018-10-09T10:19:31.928Z,61.54
2018-10-09T10:22:00.730Z,62.41
2018-10-09T10:24:29.832Z,62.72
2018-10-09T10:26:58.348Z,61.87
2018-10-09T10:29:27.223Z,61.41
2018-10-09T10:31:56.928Z,59.98
2018-10-09T10:34:25.541Z,60.29
2018-10-09T10:36:54.548Z,59.84
2018-10-09T10:39:23.945Z,58.78
2018-10-09T10:41:52.957Z,57.18
2018-10-09T10:44:22.003Z,55.92
2018-10-09T10:46:51.284Z,54.27
2018-10-09T10:49:20.377Z,55.40
2018-10-09T10:51:49.665Z,55.12
2018-10-09T10:54:18.079Z,52.54
2018-10-09T10:56:47.532Z,51.41
2018-10-09T10:59:15.987Z,51.27
2018-10-09T11:01:46.911Z,53.62
2018-10-09T11:04:15.377Z,52.89
2018-10-09T11:06:43.913Z,53.24
2018-10-09T11:09:12.359Z,55.83
2018-10-09T11:11:41.685Z,51.97
2018-10-09T11:14:11.052Z,52.23
2018-10-09T11:16:39.789Z,53.64
2018-10-09T11:19:08.287Z,52.19
2018-10-09T11:21:36.799Z,52.31
2018-10-09T11:24:05.203Z,51.76
2018-10-09T11:26:33.650Z,51.67
2018-10-09T11:29:02.135Z,52.64
2018-10-09T11:31:31.143Z,56.36
2018-10-09T11:34:01.631Z,56.35
2018-10-09T11:36:30.230Z,55.69
2018-10-09T11:38:59.407Z,53.98
2018-10-09T11:41:28.961Z,53.68
2018-10-09T11:43:58.564Z,50.87
2018-10-09T11:46:27.027Z,52.84
2018-10-09T11:48:55.646Z,51.40
2018-10-09T11:51:24.148Z,51.36
2018-10-09T11:53:53.398Z,51.52
2018-10-09T11:56:22.503Z,54.70
2018-10-09T11:58:51.110Z,54.17
2018-10-09T12:01:19.604Z,54.75
2018-10-09T12:03:48.035Z,55.58
2018-10-09T12:06:16.901Z,54.47
2018-10-09T12:08:45.540Z,53.80
2018-10-09T12:11:14.023Z,54.52
2018-10-09T12:13:42.512Z,56.84
2018-10-09T12:16:10.946Z,54.71
2018-10-09T12:18:39.584Z,54.06
2018-10-09T12:21:08.157Z,52.89
2018-10-09T12:23:38.688Z,53.22
2018-10-09T12:26:07.755Z,52.67
2018-10-09T12:28:36.226Z,51.50
2018-10-09T12:31:05.309Z,50.11
2018-10-09T12:33:33.833Z,49.82
2018-10-09T12:36:02.352Z,50.95
2018-10-09T12:38:31.799Z,49.63
2018-10-09T12:41:00.200Z,49.03
2018-10-09T12:43:28.747Z,47.82
2018-10-09T12:45:58.079Z,48.70
2018-10-09T12:48:26.667Z,49.82
2018-10-09T12:50:55.148Z,50.23
2018-10-09T12:53:23.993Z,48.14
2018-10-09T12:55:52.452Z,47.91
2018-10-09T12:58:20.956Z,50.01
2018-10-09T13:00:49.492Z,48.75
2018-10-09T13:03:18.503Z,49.59
2018-10-09T13:05:46.959Z,47.81
2018-10-09T13:08:15.435Z,48.81
2018-10-09T13:10:43.928Z,49.81
2018-10-09T13:13:12.524Z,51.00
2018-10-09T13:15:40.970Z,50.43
2018-10-09T13:18:09.483Z,50.57
2018-10-09T13:20:38.765Z,50.88
2018-10-09T13:23:07.334Z,52.03
2018-10-09T13:25:35.935Z,53.92
2018-10-09T13:28:04.355Z,52.87
2018-10-09T13:30:32.829Z,53.15
2018-10-09T13:33:02.214Z,53.34
2018-10-09T13:35:30.720Z,54.58
2018-10-09T13:38:00.130Z,53.51
2018-10-09T13:40:28.620Z,52.82
2018-10-09T13:42:57.645Z,52.46
2018-10-09T13:45:26.119Z,53.03
2018-10-09T13:47:54.562Z,53.32
2018-10-09T13:50:23.300Z,54.01
2018-10-09T13:52:51.760Z,53.81
2018-10-09T13:55:20.442Z,53.15
2018-10-09T13:57:49.204Z,53.82
2018-10-09T14:00:18.199Z,54.02
2018-10-09T14:02:46.702Z,55.18
2018-10-09T14:05:15.219Z,55.06
2018-10-09T14:07:43.665Z,54.93
2018-10-09T14:10:12.371Z,55.63
2018-10-09T14:12:40.856Z,55.88
2018-10-09T14:15:09.487Z,56.85
2018-10-09T14:17:38.395Z,56.16
2018-10-09T14:20:07.044Z,56.58
2018-10-09T14:22:35.834Z,56.91
2018-10-09T14:25:04.706Z,57.05
2018-10-09T14:27:33.231Z,57.24
2018-10-09T14:30:01.723Z,57.39
2018-10-09T14:32:30.859Z,56.91
2018-10-09T14:34:59.566Z,56.62
2018-10-09T14:37:28.027Z,57.71
2018-10-09T14:39:56.600Z,57.30
2018-10-09T14:42:25.072Z,57.01
2018-10-09T14:44:53.549Z,57.91
2018-10-09T14:47:22.016Z,58.61
2018-10-09T14:49:50.424Z,59.35
2018-10-09T14:52:20.571Z,59.04
2018-10-09T14:54:50.992Z,58.84
2018-10-09T14:57:21.268Z,59.36
2018-10-09T14:59:49.736Z,59.42
2018-10-09T15:02:18.540Z,60.14
2018-10-09T15:04:47.079Z,59.33
2018-10-09T15:07:15.883Z,60.47
2018-10-09T15:09:44.352Z,61.21
2018-10-09T15:12:12.894Z,61.05
2018-10-09T15:14:41.345Z,60.35
2018-10-09T15:17:09.873Z,61.48
2018-10-09T15:19:38.322Z,62.34
2018-10-09T15:22:06.785Z,62.92
2018-10-09T15:24:35.784Z,62.14
2018-10-09T15:27:04.248Z,63.31
2018-10-09T15:29:32.810Z,62.81
2018-10-09T15:32:01.366Z,63.13
2018-10-09T15:34:29.863Z,62.45
2018-10-09T15:36:59.052Z,63.21
2018-10-09T15:39:27.699Z,63.08
2018-10-09T15:41:56.218Z,63.80
2018-10-09T15:44:24.740Z,64.17
2018-10-09T15:46:53.235Z,64.35
2018-10-09T15:49:21.920Z,65.13
2018-10-09T15:51:51.273Z,64.31
2018-10-09T15:54:19.818Z,64.40
2018-10-09T15:56:48.321Z,65.12
2018-10-09T15:59:17.145Z,65.39
2018-10-09T16:01:45.628Z,65.06
2018-10-09T16:04:14.324Z,65.31
2018-10-09T16:06:42.927Z,66.04
2018-10-09T16:09:12.071Z,66.05
2018-10-09T16:11:42.068Z,66.62
2018-10-09T16:14:10.668Z,66.79
2018-10-09T16:16:39.219Z,66.63
2018-10-09T16:19:08.128Z,67.72
2018-10-09T16:21:36.549Z,67.37
2018-10-09T16:24:05.051Z,68.21
2018-10-09T16:26:33.807Z,69.26
2018-10-09T16:29:02.345Z,70.42
2018-10-09T16:31:30.814Z,71.95
2018-10-09T16:33:59.307Z,72.43
2018-10-09T16:36:27.828Z,72.85
2018-10-09T16:38:56.388Z,74.01
2018-10-09T16:41:24.866Z,74.22
2018-10-09T16:43:53.322Z,75.47
2018-10-09T16:46:21.789Z,75.71
2018-10-09T16:48:50.576Z,76.27
2018-10-09T16:51:19.285Z,77.35
2018-10-09T16:53:47.797Z,78.01
2018-10-09T16:56:17.104Z,77.76
2018-10-09T16:58:45.590Z,78.67
2018-10-09T17:01:14.003Z,79.34
2018-10-09T17:03:43.099Z,80.01
2018-10-09T17:06:11.538Z,79.98
2018-10-09T17:08:40.155Z,80.07
2018-10-09T17:11:08.620Z,80.32
2018-10-09T17:13:37.068Z,80.76
2018-10-09T17:16:06.344Z,80.64
2018-10-09T17:18:34.818Z,81.41
2018-10-09T17:21:03.272Z,81.83
2018-10-09T17:23:31.712Z,81.88
2018-10-09T17:26:00.332Z,81.82
2018-10-09T17:28:28.837Z,82.37
2018-10-09T17:30:57.461Z,83.01
2018-10-09T17:33:25.901Z,83.50
2018-10-09T17:35:54.416Z,84.19
2018-10-09T17:38:22.869Z,83.61
2018-10-09T17:40:51.295Z,84.01
2018-10-09T17:43:19.863Z,84.29
2018-10-09T17:45:48.362Z,84.20
2018-10-09T17:48:16.912Z,84.31
2018-10-09T17:50:45.401Z,85.29
2018-10-09T17:53:13.940Z,84.65
2018-10-09T17:55:42.512Z,84.64
2018-10-09T17:58:10.979Z,84.51
2018-10-09T18:00:39.551Z,84.55
2018-10-09T18:03:08.753Z,85.83
2018-10-09T18:05:37.247Z,85.50
2018-10-09T18:08:06.031Z,86.02
2018-10-09T18:10:34.511Z,85.94
2018-10-09T18:13:03.156Z,86.45
2018-10-09T18:15:31.644Z,87.49
2018-10-09T18:18:00.154Z,87.88
2018-10-09T18:20:28.704Z,88.80
2018-10-09T18:22:57.116Z,87.57
2018-10-09T18:25:25.588Z,87.88
2018-10-09T18:27:54.050Z,86.89
2018-10-09T18:30:22.922Z,86.97
2018-10-09T18:32:51.551Z,87.13
2018-10-09T18:35:19.916Z,86.50
2018-10-09T18:37:48.397Z,87.59
2018-10-09T18:40:16.836Z,87.67
2018-10-09T18:42:46.276Z,86.98
2018-10-09T18:45:14.749Z,87.81
2018-10-09T18:47:44.398Z,87.38
2018-10-09T18:50:13.207Z,87.55
2018-10-09T18:52:42.358Z,87.31
2018-10-09T18:55:12.940Z,88.30
2018-10-09T18:57:41.433Z,88.09
2018-10-09T19:00:10.404Z,88.43
2018-10-09T19:02:39.588Z,88.17
2018-10-09T19:05:08.711Z,87.87
2018-10-09T19:07:37.451Z,87.84
2018-10-09T19:10:06.150Z,88.40
2018-10-09T19:12:34.763Z,87.95
2018-10-09T19:15:03.253Z,87.41
2018-10-09T19:17:31.863Z,87.77
2018-10-09T19:20:00.332Z,88.54
2018-10-09T19:22:28.852Z,88.75
2018-10-09T19:24:57.390Z,88.64
2018-10-09T19:27:25.898Z,88.29
2018-10-09T19:29:55.185Z,88.33
2018-10-09T19:32:23.769Z,88.16
2018-10-09T19:34:52.462Z,89.04
2018-10-09T19:37:28.541Z,88.33
2018-10-09T19:40:01.225Z,88.54
2018-10-09T19:42:31.787Z,87.91
2018-10-09T19:45:00.252Z,87.71
2018-10-09T19:47:32.867Z,88.51
2018-10-09T19:50:01.383Z,89.31
2018-10-09T19:52:30.296Z,88.98
2018-10-09T19:58:30.172Z,88.30
2018-10-09T20:00:58.812Z,88.59
2018-10-09T20:03:27.293Z,88.43
2018-10-09T20:05:55.772Z,89.30
2018-10-09T20:08:25.312Z,88.72
2018-10-09T20:10:53.904Z,88.67
2018-10-09T20:15:56.661Z,88.54
2018-10-09T20:18:25.212Z,88.59
2018-10-09T20:20:54.249Z,88.80
2018-10-09T20:23:23.007Z,88.18
2018-10-09T20:25:51.491Z,87.88
2018-10-09T20:28:20.077Z,88.79
2018-10-09T20:30:48.594Z,88.15
2018-10-09T20:33:17.146Z,89.17
2018-10-09T20:35:45.583Z,88.99
2018-10-09T20:38:14.132Z,89.83
2018-10-09T20:40:42.600Z,89.70
2018-10-09T20:43:11.119Z,88.57
2018-10-09T20:45:39.658Z,88.10
2018-10-09T20:48:08.189Z,88.36
2018-10-09T20:50:36.855Z,89.18
2018-10-09T20:53:05.941Z,89.13
2018-10-09T20:55:34.431Z,88.20
2018-10-09T20:58:02.945Z,88.88
2018-10-09T21:00:31.409Z,91.06
2018-10-09T21:03:00.028Z,90.90
2018-10-09T21:05:28.509Z,90.12
2018-10-09T21:07:58.024Z,89.72
2018-10-09T21:10:26.503Z,88.81
2018-10-09T21:12:54.973Z,90.24
2018-10-09T21:15:23.584Z,89.08
2018-10-09T21:17:52.337Z,88.99
2018-10-09T21:20:20.956Z,88.57
2018-10-09T21:22:49.467Z,88.76
2018-10-09T21:25:18.039Z,88.81
2018-10-09T21:27:46.570Z,89.02
2018-10-09T21:30:15.025Z,89.19
2018-10-09T21:32:43.944Z,89.27
2018-10-09T21:35:12.445Z,89.22
2018-10-09T21:37:40.931Z,89.37
2018-10-09T21:40:09.519Z,89.77
2018-10-09T21:42:38.058Z,89.19
2018-10-09T21:45:06.551Z,89.50
2018-10-09T21:47:34.996Z,88.53
2018-10-09T21:50:03.668Z,88.21
2018-10-09T21:52:32.964Z,88.45
2018-10-09T21:55:01.451Z,88.87
2018-10-09T21:57:29.959Z,88.37
2018-10-09T21:59:58.590Z,88.94
2018-10-09T22:02:27.101Z,88.02
2018-10-09T22:04:55.656Z,88.57
2018-10-09T22:07:24.275Z,87.76
2018-10-09T22:09:53.118Z,88.70
2018-10-09T22:12:21.595Z,89.75
2018-10-09T22:14:50.180Z,88.90
2018-10-09T22:17:18.672Z,89.42
2018-10-09T22:19:47.215Z,89.21
2018-10-09T22:22:15.754Z,88.83
2018-10-09T22:24:44.219Z,88.67
2018-10-09T22:27:12.864Z,89.92
2018-10-09T22:29:41.368Z,90.68
2018-10-09T22:32:09.835Z,91.34
2018-10-09T22:34:38.356Z,91.18
2018-10-09T22:37:07.000Z,89.41
2018-10-09T22:39:35.555Z,88.50
2018-10-09T22:42:03.994Z,88.88
2018-10-09T22:44:33.609Z,89.39
2018-10-09T22:47:02.061Z,88.39
2018-10-09T22:49:30.745Z,89.28
2018-10-09T22:51:59.353Z,89.11
2018-10-09T22:54:27.891Z,88.93
2018-10-09T22:56:56.733Z,88.93
2018-10-09T22:59:25.759Z,88.17
2018-10-09T23:01:54.281Z,88.96
2018-10-09T23:04:23.611Z,89.82
2018-10-09T23:06:52.123Z,91.21
2018-10-09T23:09:20.664Z,90.74
2018-10-09T23:11:49.174Z,90.89
2018-10-09T23:14:18.760Z,90.46
2018-10-09T23:16:47.233Z,89.92
2018-10-09T23:19:16.279Z,89.37
2018-10-09T23:21:45.757Z,88.85
2018-10-09T23:24:14.283Z,88.91
2018-10-09T23:26:42.815Z,89.03
2018-10-09T23:29:11.312Z,89.27
2018-10-09T23:31:39.899Z,89.10
2018-10-09T23:34:09.134Z,89.76
2018-10-09T23:36:37.694Z,90.52
2018-10-09T23:39:07.645Z,89.96
2018-10-09T23:41:36.198Z,90.31
2018-10-09T23:44:04.729Z,88.81
2018-10-09T23:46:33.277Z,89.10
2018-10-09T23:49:01.746Z,88.93
2018-10-09T23:51:30.421Z,89.15
2018-10-09T23:53:58.922Z,89.84
2018-10-09T23:56:27.440Z,89.38
2018-10-09T23:58:55.993Z,90.67
